createdAt,value
2023-03-08T00:00:43.208Z,95.37
2023-03-08T00:01:43.187Z,95.26
2023-03-08T00:02:43.179Z,95.15
2023-03-08T00:03:43.240Z,95.26
2023-03-08T00:04:43.172Z,95.37
2023-03-08T00:05:43.159Z,94.95
2023-03-08T00:06:43.130Z,95.72
2023-03-08T00:07:43.107Z,95.57
2023-03-08T00:08:43.169Z,95.47
2023-03-08T00:09:43.082Z,95.68
2023-03-08T00:10:43.064Z,95.89
2023-03-08T00:11:43.047Z,95.89
2023-03-08T00:12:43.043Z,95.57
2023-03-08T00:13:43.020Z,95.99
2023-03-08T00:14:43.009Z,95.99
2023-03-08T00:15:43.013Z,96.04
2023-03-08T00:16:42.974Z,96.10
2023-03-08T00:17:42.973Z,96.41
2023-03-08T00:18:42.954Z,96.20
2023-03-08T00:19:42.936Z,95.99
2023-03-08T00:20:42.928Z,95.93
2023-03-08T00:21:42.912Z,96.35
2023-03-08T00:22:42.892Z,96.31
2023-03-08T00:23:42.894Z,96.45
2023-03-08T00:24:42.867Z,96.35
2023-03-08T00:25:42.854Z,96.35
2023-03-08T00:26:42.839Z,96.35
2023-03-08T00:27:42.827Z,96.77
2023-03-08T00:28:42.844Z,96.66
2023-03-08T00:29:42.924Z,96.71
2023-03-08T00:30:42.799Z,96.77
2023-03-08T00:31:42.840Z,96.71
2023-03-08T00:32:42.811Z,96.77
2023-03-08T00:33:42.751Z,97.02
2023-03-08T00:34:42.731Z,96.71
2023-03-08T00:35:42.735Z,97.44
2023-03-08T00:36:42.701Z,97.34
2023-03-08T00:37:42.693Z,97.55
2023-03-08T00:38:42.678Z,97.86
2023-03-08T00:39:42.662Z,97.96
2023-03-08T00:40:42.656Z,97.65
2023-03-08T00:41:42.633Z,98.07
2023-03-08T00:42:42.622Z,97.75
2023-03-08T00:43:42.614Z,98.18
2023-03-08T00:44:42.593Z,98.07
2023-03-08T00:45:42.576Z,98.18
2023-03-08T00:46:42.623Z,97.96
2023-03-08T00:47:42.551Z,98.18
2023-03-08T00:48:42.536Z,98.07
2023-03-08T00:49:42.522Z,97.86
2023-03-08T00:50:42.504Z,97.65
2023-03-08T00:51:42.493Z,98.07
2023-03-08T00:52:42.477Z,98.18
2023-03-08T00:53:42.478Z,97.96
2023-03-08T00:54:42.488Z,98.07
2023-03-08T00:55:42.438Z,97.65
2023-03-08T00:56:42.422Z,97.86
2023-03-08T00:57:42.416Z,97.75
2023-03-08T00:58:42.419Z,97.86
2023-03-08T00:59:42.382Z,98.18
2023-03-08T01:00:42.443Z,97.65
2023-03-08T01:01:42.364Z,97.96
2023-03-08T01:02:42.343Z,97.69
2023-03-08T01:03:42.320Z,97.86
2023-03-08T01:04:42.308Z,98.69
2023-03-08T01:05:42.320Z,98.43
2023-03-08T01:06:42.281Z,97.91
2023-03-08T01:07:42.264Z,98.74
2023-03-08T01:08:42.287Z,98.74
2023-03-08T01:09:42.236Z,98.54
2023-03-08T01:10:42.222Z,98.32
2023-03-08T01:11:42.235Z,98.11
2023-03-08T01:12:42.192Z,98.22
2023-03-08T01:13:42.175Z,98.22
2023-03-08T01:14:42.169Z,98.07
2023-03-08T01:15:42.195Z,98.64
2023-03-08T01:16:42.139Z,98.64
2023-03-08T01:17:42.125Z,98.32
2023-03-08T01:18:42.106Z,98.95
2023-03-08T01:19:42.091Z,99.05
2023-03-08T01:20:42.079Z,98.95
2023-03-08T01:21:42.067Z,98.95
2023-03-08T01:22:42.051Z,98.95
2023-03-08T01:23:42.669Z,99.05
2023-03-08T01:24:42.016Z,99.16
2023-03-08T01:25:42.005Z,99.05
2023-03-08T01:26:41.989Z,98.64
2023-03-08T01:27:41.976Z,98.85
2023-03-08T01:28:41.985Z,98.95
2023-03-08T01:29:41.947Z,99.16
2023-03-08T01:30:41.938Z,99.00
2023-03-08T01:31:41.919Z,99.37
2023-03-08T01:32:41.911Z,99.58
2023-03-08T01:33:41.890Z,99.58
2023-03-08T01:34:41.878Z,99.48
2023-03-08T01:35:41.889Z,99.48
2023-03-08T01:36:41.847Z,99.58
2023-03-08T01:37:41.836Z,99.99
2023-03-08T01:38:41.819Z,99.58
2023-03-08T01:39:41.802Z,99.68
2023-03-08T01:40:41.787Z,99.79
2023-03-08T01:41:41.777Z,99.99
2023-03-08T01:42:41.760Z,99.99
2023-03-08T01:43:41.745Z,99.99
2023-03-08T01:44:41.729Z,99.99
2023-03-08T01:45:41.717Z,99.99
2023-03-08T01:46:41.698Z,99.99
2023-03-08T01:47:41.685Z,99.99
2023-03-08T01:48:41.694Z,99.79
2023-03-08T01:49:41.659Z,99.90
2023-03-08T01:50:41.639Z,99.94
2023-03-08T01:51:41.628Z,99.99
2023-03-08T01:52:41.615Z,99.79
2023-03-08T01:53:41.608Z,99.99
2023-03-08T01:54:41.584Z,99.99
2023-03-08T01:55:41.570Z,99.94
2023-03-08T01:56:41.556Z,99.99
2023-03-08T01:57:41.545Z,99.99
2023-03-08T01:58:41.526Z,99.99
2023-03-08T01:59:41.509Z,99.99
2023-03-08T02:00:41.495Z,99.99
2023-03-08T02:01:41.484Z,99.99
2023-03-08T02:02:41.469Z,99.99
2023-03-08T02:03:41.490Z,99.99
2023-03-08T02:04:41.444Z,99.99
2023-03-08T02:05:41.420Z,99.99
2023-03-08T02:06:41.414Z,99.99
2023-03-08T02:07:41.398Z,99.99
2023-03-08T02:08:41.383Z,99.99
2023-03-08T02:09:41.367Z,99.99
2023-03-08T02:10:41.354Z,99.99
2023-03-08T02:11:41.349Z,99.99
2023-03-08T02:12:41.327Z,99.99
2023-03-08T02:13:41.312Z,99.99
2023-03-08T02:14:41.299Z,99.99
2023-03-08T02:15:41.285Z,99.99
2023-03-08T02:16:41.273Z,99.99
2023-03-08T02:17:41.253Z,99.99
2023-03-08T02:18:41.242Z,99.99
2023-03-08T02:19:41.230Z,99.99
2023-03-08T02:20:41.231Z,99.99
2023-03-08T02:21:41.201Z,99.99
2023-03-08T02:22:41.187Z,99.99
2023-03-08T02:23:41.206Z,99.99
2023-03-08T02:24:41.152Z,99.99
2023-03-08T02:25:41.140Z,99.99
2023-03-08T02:26:41.127Z,99.99
2023-03-08T02:27:41.113Z,99.99
2023-03-08T02:28:41.153Z,99.99
2023-03-08T02:29:41.084Z,99.99
2023-03-08T02:30:41.068Z,99.99
2023-03-08T02:31:41.060Z,99.99
2023-03-08T02:32:41.140Z,99.99
2023-03-08T02:33:41.041Z,99.99
2023-03-08T02:34:41.015Z,99.99
2023-03-08T02:35:41.003Z,99.99
2023-03-08T02:36:40.983Z,99.99
2023-03-08T02:37:40.971Z,99.99
2023-03-08T02:38:40.960Z,99.99
2023-03-08T02:39:40.935Z,99.99
2023-03-08T02:40:40.925Z,99.99
2023-03-08T02:41:40.916Z,99.99
2023-03-08T02:42:40.918Z,99.99
2023-03-08T02:43:40.886Z,99.99
2023-03-08T02:44:40.872Z,99.99
2023-03-08T02:45:40.865Z,99.99
2023-03-08T02:46:40.842Z,99.99
2023-03-08T02:47:40.832Z,99.99
2023-03-08T02:48:40.810Z,99.99
2023-03-08T02:49:40.792Z,99.99
2023-03-08T02:50:40.874Z,99.99
2023-03-08T02:51:40.766Z,99.99
2023-03-08T02:52:40.751Z,99.99
2023-03-08T02:53:40.757Z,99.99
2023-03-08T02:54:40.718Z,99.99
2023-03-08T02:55:40.705Z,99.99
2023-03-08T02:56:40.693Z,99.99
2023-03-08T02:57:40.727Z,99.99
2023-03-08T02:58:40.661Z,99.99
2023-03-08T02:59:40.658Z,99.99
2023-03-08T03:00:40.638Z,99.99
2023-03-08T03:01:40.676Z,99.99
2023-03-08T03:02:40.603Z,99.99
2023-03-08T03:03:40.588Z,99.99
2023-03-08T03:04:40.593Z,99.99
2023-03-08T03:05:40.563Z,99.99
2023-03-08T03:06:40.545Z,99.99
2023-03-08T03:07:40.535Z,99.99
2023-03-08T03:08:40.522Z,99.99
2023-03-08T03:09:40.504Z,99.99
2023-03-08T03:10:40.486Z,99.99
2023-03-08T03:11:40.478Z,99.99
2023-03-08T03:12:40.458Z,99.99
2023-03-08T03:13:40.443Z,99.99
2023-03-08T03:14:40.430Z,99.99
2023-03-08T03:15:40.451Z,99.99
2023-03-08T03:16:40.401Z,99.99
2023-03-08T03:17:40.383Z,99.99
2023-03-08T03:18:40.368Z,99.99
2023-03-08T03:19:40.350Z,99.99
2023-03-08T03:20:40.341Z,99.91
2023-03-08T03:21:40.322Z,99.91
2023-03-08T03:22:40.328Z,99.99
2023-03-08T03:23:40.309Z,99.49
2023-03-08T03:24:40.280Z,99.49
2023-03-08T03:25:40.266Z,99.28
2023-03-08T03:26:40.253Z,99.38
2023-03-08T03:27:40.240Z,98.75
2023-03-08T03:28:40.224Z,99.18
2023-03-08T03:29:40.220Z,99.24
2023-03-08T03:30:40.190Z,98.71
2023-03-08T03:31:40.181Z,98.75
2023-03-08T03:32:40.211Z,98.61
2023-03-08T03:33:40.151Z,99.02
2023-03-08T03:34:40.145Z,99.02
2023-03-08T03:35:40.138Z,98.82
2023-03-08T03:36:40.113Z,99.24
2023-03-08T03:37:40.090Z,98.71
2023-03-08T03:38:40.082Z,98.19
2023-03-08T03:39:40.065Z,98.61
2023-03-08T03:40:40.048Z,98.24
2023-03-08T03:41:40.151Z,98.29
2023-03-08T03:42:40.026Z,98.19
2023-03-08T03:43:40.007Z,97.77
2023-03-08T03:44:39.995Z,97.88
2023-03-08T03:45:39.976Z,98.19
2023-03-08T03:46:40.067Z,97.77
2023-03-08T03:47:39.958Z,97.56
2023-03-08T03:48:39.941Z,97.45
2023-03-08T03:49:39.922Z,97.25
2023-03-08T03:50:39.908Z,97.14
2023-03-08T03:51:39.896Z,96.94
2023-03-08T03:52:39.881Z,96.72
2023-03-08T03:53:39.874Z,96.83
2023-03-08T03:54:39.858Z,97.35
2023-03-08T03:55:39.839Z,97.25
2023-03-08T03:56:39.834Z,97.25
2023-03-08T03:57:39.813Z,97.35
2023-03-08T03:58:39.799Z,97.14
2023-03-08T03:59:39.800Z,97.35
2023-03-08T04:00:39.771Z,97.35
2023-03-08T04:01:39.761Z,96.72
2023-03-08T04:02:39.775Z,96.83
2023-03-08T04:03:39.804Z,96.83
2023-03-08T04:04:39.716Z,96.72
2023-03-08T04:05:39.699Z,96.94
2023-03-08T04:06:39.684Z,96.94
2023-03-08T04:07:39.671Z,96.94
2023-03-08T04:08:39.660Z,96.94
2023-03-08T04:09:39.642Z,96.83
2023-03-08T04:10:39.624Z,96.94
2023-03-08T04:11:39.620Z,96.51
2023-03-08T04:12:39.602Z,96.51
2023-03-08T04:13:39.584Z,96.47
2023-03-08T04:14:39.619Z,96.37
2023-03-08T04:15:39.556Z,97.14
2023-03-08T04:16:39.552Z,96.51
2023-03-08T04:17:39.527Z,96.58
2023-03-08T04:18:39.516Z,96.68
2023-03-08T04:19:39.498Z,96.58
2023-03-08T04:20:39.488Z,96.68
2023-03-08T04:21:39.471Z,95.74
2023-03-08T04:22:39.450Z,96.20
2023-03-08T04:23:39.461Z,96.62
2023-03-08T04:24:39.445Z,95.74
2023-03-08T04:25:39.421Z,96.58
2023-03-08T04:26:39.396Z,96.41
2023-03-08T04:27:39.383Z,96.31
2023-03-08T04:28:39.381Z,96.16
2023-03-08T04:29:39.353Z,95.95
2023-03-08T04:30:39.340Z,96.26
2023-03-08T04:31:39.342Z,95.95
2023-03-08T04:32:39.365Z,96.16
2023-03-08T04:33:39.300Z,96.16
2023-03-08T04:34:39.285Z,96.05
2023-03-08T04:35:39.365Z,96.05
2023-03-08T04:36:39.253Z,95.53
2023-03-08T04:37:39.239Z,95.84
2023-03-08T04:38:39.235Z,95.74
2023-03-08T04:39:39.211Z,95.64
2023-03-08T04:40:39.198Z,95.47
2023-03-08T04:41:39.186Z,94.84
2023-03-08T04:42:39.169Z,95.47
2023-03-08T04:43:39.160Z,95.57
2023-03-08T04:44:39.153Z,95.41
2023-03-08T04:45:39.128Z,95.26
2023-03-08T04:46:39.122Z,95.20
2023-03-08T04:47:39.098Z,95.66
2023-03-08T04:48:39.098Z,95.72
2023-03-08T04:49:39.073Z,95.98
2023-03-08T04:50:39.056Z,96.19
2023-03-08T04:51:39.044Z,96.29
2023-03-08T04:52:39.028Z,96.71
2023-03-08T04:53:39.024Z,96.61
2023-03-08T04:54:39.005Z,96.96
2023-03-08T04:55:38.993Z,97.17
2023-03-08T04:56:38.971Z,97.28
2023-03-08T04:57:38.957Z,97.91
2023-03-08T04:58:38.961Z,97.91
2023-03-08T04:59:38.928Z,97.80
2023-03-08T05:00:38.914Z,98.11
2023-03-08T05:01:38.903Z,98.43
2023-03-08T05:02:39.008Z,98.11
2023-03-08T05:03:38.874Z,98.01
2023-03-08T05:04:38.884Z,98.22
2023-03-08T05:05:38.843Z,97.80
2023-03-08T05:06:38.829Z,98.64
2023-03-08T05:07:38.821Z,98.64
2023-03-08T05:08:38.802Z,98.43
2023-03-08T05:09:38.791Z,98.22
2023-03-08T05:10:38.786Z,98.43
2023-03-08T05:11:38.763Z,98.43
2023-03-08T05:12:38.744Z,98.54
2023-03-08T05:13:38.732Z,98.32
2023-03-08T05:14:38.737Z,98.28
2023-03-08T05:15:38.704Z,98.18
2023-03-08T05:16:38.743Z,98.07
2023-03-08T05:17:38.748Z,98.38
2023-03-08T05:18:38.658Z,98.43
2023-03-08T05:19:38.644Z,98.32
2023-03-08T05:20:38.630Z,98.07
2023-03-08T05:21:38.624Z,97.96
2023-03-08T05:22:55.095Z,98.28
2023-03-08T05:23:38.586Z,98.49
2023-03-08T05:24:38.574Z,98.49
2023-03-08T05:25:38.560Z,98.38
2023-03-08T05:26:38.551Z,98.59
2023-03-08T05:27:38.529Z,98.59
2023-03-08T05:28:38.514Z,97.86
2023-03-08T05:29:38.501Z,98.22
2023-03-08T05:30:38.486Z,98.11
2023-03-08T05:31:38.514Z,98.32
2023-03-08T05:32:38.505Z,98.38
2023-03-08T05:33:38.472Z,98.11
2023-03-08T05:34:38.428Z,97.91
2023-03-08T05:35:38.430Z,98.11
2023-03-08T05:36:38.401Z,97.91
2023-03-08T05:37:38.384Z,98.01
2023-03-08T05:38:38.388Z,98.74
2023-03-08T05:39:38.357Z,98.32
2023-03-08T05:40:38.344Z,98.32
2023-03-08T05:41:38.340Z,98.28
2023-03-08T05:42:38.312Z,98.43
2023-03-08T05:43:38.301Z,98.07
2023-03-08T05:44:38.288Z,98.18
2023-03-08T05:45:38.446Z,98.38
2023-03-08T05:46:38.302Z,98.74
2023-03-08T05:47:38.243Z,98.69
2023-03-08T05:48:38.239Z,98.28
2023-03-08T05:49:38.221Z,98.38
2023-03-08T05:50:38.197Z,98.38
2023-03-08T05:51:38.202Z,97.96
2023-03-08T05:52:38.178Z,98.38
2023-03-08T05:53:38.177Z,98.38
2023-03-08T05:54:38.162Z,98.02
2023-03-08T05:55:38.136Z,98.28
2023-03-08T05:56:38.114Z,98.38
2023-03-08T05:57:38.100Z,97.86
2023-03-08T05:58:38.083Z,97.61
2023-03-08T05:59:38.076Z,97.96
2023-03-08T06:00:38.057Z,98.02
2023-03-08T06:01:38.045Z,98.07
2023-03-08T06:02:38.032Z,97.61
2023-03-08T06:03:38.070Z,97.13
2023-03-08T06:04:38.002Z,97.50
2023-03-08T06:05:38.079Z,97.65
2023-03-08T06:06:37.986Z,97.39
2023-03-08T06:07:37.951Z,97.08
2023-03-08T06:08:37.980Z,97.08
2023-03-08T06:09:37.930Z,97.34
2023-03-08T06:10:37.916Z,97.13
2023-03-08T06:11:37.900Z,97.34
2023-03-08T06:12:37.885Z,97.34
2023-03-08T06:13:37.874Z,97.13
2023-03-08T06:14:37.859Z,97.65
2023-03-08T06:15:37.842Z,97.23
2023-03-08T06:16:37.995Z,97.13
2023-03-08T06:17:37.816Z,97.02
2023-03-08T06:18:37.806Z,97.13
2023-03-08T06:19:37.793Z,97.02
2023-03-08T06:20:37.771Z,97.19
2023-03-08T06:21:37.756Z,96.81
2023-03-08T06:22:37.742Z,96.45
2023-03-08T06:23:37.749Z,96.45
2023-03-08T06:24:37.714Z,97.29
2023-03-08T06:25:37.700Z,96.98
2023-03-08T06:26:37.689Z,96.78
2023-03-08T06:27:37.674Z,96.53
2023-03-08T06:28:37.660Z,94.86
2023-03-08T06:29:37.644Z,94.38
2023-03-08T06:30:37.671Z,94.13
2023-03-08T06:31:37.620Z,94.17
2023-03-08T06:32:37.848Z,94.02
2023-03-08T06:33:37.598Z,93.50
2023-03-08T06:34:37.577Z,93.50
2023-03-08T06:35:37.588Z,93.92
2023-03-08T06:36:37.560Z,93.19
2023-03-08T06:37:37.607Z,92.98
2023-03-08T06:38:37.534Z,93.08
2023-03-08T06:39:37.515Z,92.98
2023-03-08T06:40:37.497Z,92.98
2023-03-08T06:41:37.490Z,92.66
2023-03-08T06:42:41.641Z,93.46
2023-03-08T06:43:37.461Z,92.83
2023-03-08T06:44:39.887Z,92.22
2023-03-08T06:45:37.434Z,91.14
2023-03-08T06:46:37.414Z,90.70
2023-03-08T06:47:37.626Z,89.73
2023-03-08T06:48:37.390Z,88.60
2023-03-08T06:49:37.375Z,88.48
2023-03-08T06:50:37.362Z,86.12
2023-03-08T06:51:37.349Z,83.17
2023-03-08T06:52:37.340Z,80.89
2023-03-08T06:53:37.333Z,79.41
2023-03-08T06:54:37.311Z,79.86
2023-03-08T06:55:37.297Z,80.42
2023-03-08T06:56:37.282Z,81.29
2023-03-08T06:57:37.283Z,81.81
2023-03-08T06:58:37.291Z,82.15
2023-03-08T06:59:37.248Z,82.68
2023-03-08T07:00:37.233Z,82.82
2023-03-08T07:01:37.254Z,83.03
2023-03-08T07:02:37.209Z,83.27
2023-03-08T07:03:37.192Z,84.11
2023-03-08T07:04:37.231Z,83.20
2023-03-08T07:05:37.165Z,83.42
2023-03-08T07:06:37.150Z,84.45
2023-03-08T07:07:37.135Z,85.08
2023-03-08T07:08:37.126Z,85.53
2023-03-08T07:09:37.110Z,86.02
2023-03-08T07:10:37.098Z,85.19
2023-03-08T07:11:37.080Z,85.53
2023-03-08T07:12:37.091Z,85.53
2023-03-08T07:13:37.056Z,85.29
2023-03-08T07:14:37.053Z,85.74
2023-03-08T07:15:37.074Z,85.74
2023-03-08T07:16:37.018Z,85.91
2023-03-08T07:17:37.002Z,85.60
2023-03-08T07:18:36.992Z,84.45
2023-03-08T07:19:36.990Z,85.60
2023-03-08T07:20:36.964Z,85.50
2023-03-08T07:21:36.951Z,85.50
2023-03-08T07:22:36.939Z,85.50
2023-03-08T07:23:36.929Z,85.71
2023-03-08T07:24:36.914Z,85.39
2023-03-08T07:25:36.951Z,85.50
2023-03-08T07:26:36.882Z,85.08
2023-03-08T07:27:36.881Z,84.56
2023-03-08T07:28:36.880Z,85.12
2023-03-08T07:29:36.845Z,85.29
2023-03-08T07:30:36.837Z,85.43
2023-03-08T07:31:36.825Z,84.66
2023-03-08T07:32:36.904Z,85.81
2023-03-08T07:33:36.795Z,85.71
2023-03-08T07:34:36.784Z,85.39
2023-03-08T07:35:39.002Z,86.06
2023-03-08T07:36:36.795Z,86.02
2023-03-08T07:37:36.746Z,86.16
2023-03-08T07:38:36.728Z,86.37
2023-03-08T07:39:36.718Z,85.71
2023-03-08T07:40:36.710Z,86.12
2023-03-08T07:41:36.704Z,86.02
2023-03-08T07:42:36.678Z,85.60
2023-03-08T07:43:36.672Z,85.60
2023-03-08T07:44:36.651Z,85.53
2023-03-08T07:45:36.643Z,86.43
2023-03-08T07:46:36.674Z,85.96
2023-03-08T07:47:36.617Z,85.74
2023-03-08T07:48:36.649Z,85.81
2023-03-08T07:49:36.589Z,86.22
2023-03-08T07:50:36.575Z,85.60
2023-03-08T07:51:36.599Z,85.60
2023-03-08T07:52:36.649Z,85.14
2023-03-08T07:53:36.555Z,84.83
2023-03-08T07:54:36.524Z,85.04
2023-03-08T07:55:36.518Z,84.69
2023-03-08T07:56:36.497Z,84.00
2023-03-08T07:57:36.558Z,84.00
2023-03-08T07:58:36.472Z,83.58
2023-03-08T07:59:36.460Z,83.80
2023-03-08T08:00:36.447Z,83.96
2023-03-08T08:01:36.434Z,82.44
2023-03-08T08:02:36.420Z,82.44
2023-03-08T08:03:36.499Z,82.44
2023-03-08T08:04:36.397Z,82.86
2023-03-08T08:05:36.456Z,83.65
2023-03-08T08:06:36.369Z,83.96
2023-03-08T08:07:36.358Z,83.54
2023-03-08T08:08:36.352Z,83.44
2023-03-08T08:09:36.330Z,82.51
2023-03-08T08:10:36.317Z,82.61
2023-03-08T08:11:36.304Z,83.13
2023-03-08T08:12:36.290Z,82.61
2023-03-08T08:13:36.309Z,82.92
2023-03-08T08:14:36.271Z,83.44
2023-03-08T08:15:36.250Z,82.92
2023-03-08T08:16:36.267Z,83.40
2023-03-08T08:17:36.234Z,82.89
2023-03-08T08:18:36.209Z,82.40
2023-03-08T08:19:36.201Z,82.30
2023-03-08T08:20:36.187Z,81.98
2023-03-08T08:21:36.176Z,82.26
2023-03-08T08:22:36.157Z,82.15
2023-03-08T08:23:36.146Z,82.26
2023-03-08T08:24:36.133Z,82.36
2023-03-08T08:25:36.120Z,82.12
2023-03-08T08:26:36.111Z,81.49
2023-03-08T08:27:36.098Z,81.18
2023-03-08T08:28:36.079Z,80.15
2023-03-08T08:29:36.069Z,80.98
2023-03-08T08:30:36.054Z,80.21
2023-03-08T08:31:36.105Z,79.90
2023-03-08T08:32:36.142Z,79.10
2023-03-08T08:33:36.018Z,79.06
2023-03-08T08:34:36.007Z,78.44
2023-03-08T08:35:43.103Z,78.34
2023-03-08T08:36:35.979Z,79.48
2023-03-08T08:37:35.966Z,78.75
2023-03-08T08:38:35.950Z,78.30
2023-03-08T08:39:35.942Z,78.41
2023-03-08T08:40:35.931Z,79.48
2023-03-08T08:41:35.918Z,78.51
2023-03-08T08:42:35.913Z,78.51
2023-03-08T08:43:35.893Z,76.64
2023-03-08T08:44:35.885Z,76.33
2023-03-08T08:45:35.884Z,78.09
2023-03-08T08:46:35.855Z,77.06
2023-03-08T08:47:35.843Z,76.02
2023-03-08T08:48:35.830Z,75.92
2023-03-08T08:49:35.824Z,77.12
2023-03-08T08:50:35.807Z,76.29
2023-03-08T08:51:35.790Z,75.78
2023-03-08T08:52:35.825Z,75.57
2023-03-08T08:53:35.777Z,76.71
2023-03-08T08:54:35.799Z,75.98
2023-03-08T08:55:35.735Z,75.95
2023-03-08T08:56:35.729Z,76.78
2023-03-08T08:57:35.716Z,75.12
2023-03-08T08:58:35.763Z,75.23
2023-03-08T08:59:35.698Z,74.50
2023-03-08T09:00:35.681Z,75.02
2023-03-08T09:01:35.697Z,74.91
2023-03-08T09:02:35.695Z,74.63
2023-03-08T09:03:35.682Z,74.95
2023-03-08T09:04:35.780Z,75.02
2023-03-08T09:05:35.617Z,74.91
2023-03-08T09:06:35.632Z,74.40
2023-03-08T09:07:38.121Z,74.40
2023-03-08T09:08:35.592Z,73.25
2023-03-08T09:09:35.569Z,74.71
2023-03-08T09:10:35.556Z,74.50
2023-03-08T09:11:42.190Z,74.60
2023-03-08T09:12:35.573Z,73.43
2023-03-08T09:13:35.524Z,73.88
2023-03-08T09:14:35.510Z,73.84
2023-03-08T09:15:35.506Z,74.08
2023-03-08T09:16:35.530Z,72.42
2023-03-08T09:17:35.471Z,72.74
2023-03-08T09:18:35.460Z,73.74
2023-03-08T09:19:35.459Z,73.43
2023-03-08T09:20:35.438Z,72.84
2023-03-08T09:21:35.428Z,73.36
2023-03-08T09:22:35.416Z,73.36
2023-03-08T09:23:35.402Z,72.53
2023-03-08T09:24:35.388Z,73.32
2023-03-08T09:25:35.379Z,74.05
2023-03-08T09:26:35.367Z,72.18
2023-03-08T09:27:35.355Z,72.28
2023-03-08T09:28:35.366Z,71.66
2023-03-08T09:29:35.333Z,71.87
2023-03-08T09:30:35.332Z,72.25
2023-03-08T09:31:35.353Z,71.42
2023-03-08T09:32:35.333Z,72.05
2023-03-08T09:33:35.289Z,71.53
2023-03-08T09:34:35.278Z,72.05
2023-03-08T09:35:35.303Z,71.59
2023-03-08T09:36:35.250Z,69.87
2023-03-08T09:37:35.240Z,70.90
2023-03-08T09:38:35.229Z,69.53
2023-03-08T09:39:35.217Z,70.46
2023-03-08T09:40:35.209Z,69.63
2023-03-08T09:41:35.197Z,69.32
2023-03-08T09:42:35.187Z,68.70
2023-03-08T09:43:35.169Z,68.28
2023-03-08T09:44:35.159Z,69.63
2023-03-08T09:45:35.146Z,69.73
2023-03-08T09:46:35.144Z,69.18
2023-03-08T09:47:35.163Z,68.87
2023-03-08T09:48:35.114Z,67.83
2023-03-08T09:49:35.104Z,67.94
2023-03-08T09:50:35.088Z,68.22
2023-03-08T09:51:35.078Z,67.70
2023-03-08T09:52:35.063Z,67.91
2023-03-08T09:53:35.077Z,68.63
2023-03-08T09:54:35.040Z,68.84
2023-03-08T09:55:35.039Z,67.49
2023-03-08T09:56:35.017Z,67.39
2023-03-08T09:57:35.099Z,67.32
2023-03-08T09:58:34.994Z,66.18
2023-03-08T09:59:34.994Z,67.52
2023-03-08T10:00:35.029Z,68.35
2023-03-08T10:01:34.956Z,67.83
2023-03-08T10:02:35.005Z,67.80
2023-03-08T10:03:36.401Z,67.70
2023-03-08T10:04:34.990Z,66.66
2023-03-08T10:05:34.908Z,66.22
2023-03-08T10:06:34.897Z,65.84
2023-03-08T10:07:34.895Z,65.81
2023-03-08T10:08:34.874Z,66.22
2023-03-08T10:09:34.862Z,66.84
2023-03-08T10:10:34.852Z,66.09
2023-03-08T10:11:34.840Z,65.57
2023-03-08T10:12:34.826Z,65.64
2023-03-08T10:13:34.833Z,64.23
2023-03-08T10:14:34.846Z,63.78
2023-03-08T10:15:34.805Z,63.47
2023-03-08T10:16:34.837Z,63.26
2023-03-08T10:17:34.773Z,62.98
2023-03-08T10:18:34.763Z,62.29
2023-03-08T10:19:34.752Z,62.29
2023-03-08T10:20:34.738Z,64.15
2023-03-08T10:21:34.755Z,64.87
2023-03-08T10:22:34.713Z,65.78
2023-03-08T10:23:34.705Z,66.19
2023-03-08T10:24:34.692Z,65.47
2023-03-08T10:25:34.698Z,64.09
2023-03-08T10:26:34.700Z,63.68
2023-03-08T10:27:34.692Z,62.77
2023-03-08T10:28:34.649Z,63.68
2023-03-08T10:29:34.637Z,63.78
2023-03-08T10:30:34.665Z,63.68
2023-03-08T10:31:34.619Z,63.75
2023-03-08T10:32:34.671Z,64.37
2023-03-08T10:33:34.599Z,63.65
2023-03-08T10:34:34.587Z,64.17
2023-03-08T10:35:34.660Z,64.06
2023-03-08T10:36:34.567Z,63.85
2023-03-08T10:37:34.588Z,62.20
2023-03-08T10:38:34.561Z,62.34
2023-03-08T10:39:34.530Z,63.78
2023-03-08T10:40:34.523Z,64.09
2023-03-08T10:41:34.512Z,64.09
2023-03-08T10:42:34.501Z,64.20
2023-03-08T10:43:34.493Z,63.89
2023-03-08T10:44:34.485Z,64.27
2023-03-08T10:45:34.468Z,63.85
2023-03-08T10:46:34.511Z,63.93
2023-03-08T10:47:34.465Z,63.72
2023-03-08T10:48:34.435Z,63.72
2023-03-08T10:49:34.429Z,63.42
2023-03-08T10:50:34.415Z,63.62
2023-03-08T10:51:34.403Z,62.90
2023-03-08T10:52:34.397Z,64.34
2023-03-08T10:53:34.390Z,62.87
2023-03-08T10:54:34.370Z,60.80
2023-03-08T10:55:34.368Z,61.97
2023-03-08T10:56:34.385Z,61.24
2023-03-08T10:57:34.359Z,61.24
2023-03-08T10:58:34.329Z,62.90
2023-03-08T10:59:34.322Z,63.69
2023-03-08T11:00:34.311Z,61.83
2023-03-08T11:01:34.296Z,62.15
2023-03-08T11:02:34.290Z,62.84
2023-03-08T11:03:34.288Z,61.19
2023-03-08T11:04:34.297Z,58.20
2023-03-08T11:05:34.255Z,60.05
2023-03-08T11:06:34.295Z,59.53
2023-03-08T11:07:34.233Z,59.74
2023-03-08T11:08:34.221Z,59.05
2023-03-08T11:09:34.215Z,60.28
2023-03-08T11:10:34.216Z,60.08
2023-03-08T11:11:34.207Z,59.15
2023-03-08T11:12:34.259Z,59.67
2023-03-08T11:13:34.174Z,58.64
2023-03-08T11:14:34.229Z,60.08
2023-03-08T11:15:34.162Z,58.33
2023-03-08T11:16:34.136Z,59.59
2023-03-08T11:17:34.128Z,60.49
2023-03-08T11:18:34.138Z,60.60
2023-03-08T11:19:34.108Z,60.49
2023-03-08T11:20:34.099Z,58.22
2023-03-08T11:21:34.105Z,57.40
2023-03-08T11:22:34.076Z,57.42
2023-03-08T11:23:34.067Z,59.28
2023-03-08T11:24:34.061Z,59.36
2023-03-08T11:25:34.106Z,59.56
2023-03-08T11:26:34.056Z,57.89
2023-03-08T11:27:34.063Z,59.33
2023-03-08T11:28:34.038Z,59.02
2023-03-08T11:29:34.014Z,58.92
2023-03-08T11:30:34.005Z,59.09
2023-03-08T11:31:34.105Z,58.99
2023-03-08T11:32:34.030Z,58.79
2023-03-08T11:33:34.163Z,59.30
2023-03-08T11:34:33.952Z,58.79
2023-03-08T11:35:33.976Z,59.61
2023-03-08T11:36:33.944Z,57.96
2023-03-08T11:37:33.921Z,57.78
2023-03-08T11:38:33.932Z,58.64
2023-03-08T11:39:33.905Z,59.77
2023-03-08T11:40:33.906Z,60.60
2023-03-08T11:41:33.896Z,59.88
2023-03-08T11:42:33.888Z,60.11
2023-03-08T11:43:33.859Z,59.69
2023-03-08T11:44:33.858Z,60.11
2023-03-08T11:45:33.839Z,59.49
2023-03-08T11:46:33.853Z,58.56
2023-03-08T11:47:33.817Z,59.41
2023-03-08T11:48:33.832Z,59.83
2023-03-08T11:49:33.800Z,59.93
2023-03-08T11:50:33.796Z,60.65
2023-03-08T11:51:33.780Z,60.73
2023-03-08T11:52:33.764Z,61.17
2023-03-08T11:53:33.756Z,61.07
2023-03-08T11:54:33.741Z,60.24
2023-03-08T11:55:33.799Z,60.75
2023-03-08T11:56:33.737Z,61.48
2023-03-08T11:57:33.712Z,60.03
2023-03-08T11:58:33.702Z,60.75
2023-03-08T11:59:33.699Z,62.10
2023-03-08T12:00:33.684Z,61.45
2023-03-08T12:01:33.787Z,61.24
2023-03-08T12:02:33.668Z,62.07
2023-03-08T12:03:33.737Z,60.52
2023-03-08T12:04:33.815Z,60.55
2023-03-08T12:05:33.636Z,60.44
2023-03-08T12:06:33.935Z,60.93
2023-03-08T12:07:33.633Z,61.27
2023-03-08T12:08:33.594Z,60.34
2023-03-08T12:09:33.585Z,60.24
2023-03-08T12:10:33.570Z,61.99
2023-03-08T12:11:33.559Z,60.96
2023-03-08T12:12:33.552Z,60.55
2023-03-08T12:13:33.554Z,60.65
2023-03-08T12:14:33.536Z,61.07
2023-03-08T12:15:33.568Z,61.69
2023-03-08T12:16:33.590Z,62.10
2023-03-08T12:17:33.504Z,61.27
2023-03-08T12:18:33.501Z,61.14
2023-03-08T12:19:33.484Z,60.21
2023-03-08T12:20:33.462Z,61.55
2023-03-08T12:21:33.451Z,61.04
2023-03-08T12:22:33.569Z,60.60
2023-03-08T12:23:33.468Z,60.52
2023-03-08T12:24:33.453Z,58.66
2023-03-08T12:25:33.410Z,59.77
2023-03-08T12:26:33.424Z,60.11
2023-03-08T12:27:33.455Z,60.11
2023-03-08T12:28:33.452Z,59.67
2023-03-08T12:29:33.445Z,59.59
2023-03-08T12:30:33.362Z,59.25
2023-03-08T12:31:33.422Z,59.98
2023-03-08T12:32:33.501Z,59.77
2023-03-08T12:33:33.389Z,59.02
2023-03-08T12:34:33.318Z,58.92
2023-03-08T12:35:33.355Z,59.64
2023-03-08T12:36:33.382Z,60.57
2023-03-08T12:37:33.357Z,59.12
2023-03-08T12:38:33.331Z,58.99
2023-03-08T12:39:33.297Z,59.41
2023-03-08T12:40:33.268Z,59.92
2023-03-08T12:41:33.299Z,57.55
2023-03-08T12:42:33.237Z,58.20
2023-03-08T12:43:33.228Z,59.12
2023-03-08T12:44:33.219Z,56.65
2023-03-08T12:45:33.232Z,57.17
2023-03-08T12:46:33.206Z,58.71
2023-03-08T12:47:33.233Z,59.74
2023-03-08T12:48:33.205Z,59.95
2023-03-08T12:49:33.219Z,58.92
2023-03-08T12:50:33.181Z,58.81
2023-03-08T12:51:33.223Z,58.71
2023-03-08T12:52:33.174Z,56.37